Dodgeville, WI (53533)

7:59 AM CST on December 05, 2016 (GMT -0600)
Iowa County | | Change Station

Elev 1168 ft 42.89 °N, 90.23 °W | Updated 24 minutes ago

Fog
Fog
34 °F
Feels Like 31 °F
N
4
Wind Variable Wind from SSW

Today
High -- | Low -- °F
--% Chance of Precip.
Yesterday
High -- | Low -- °F
Precip. -- in
Pressure 29.92 in
Visibility 0.2 miles
Clouds Overcast 300 ft
Windchill 31 °F
Dew Point 34 °F
Humidity 100%
Rainfall 0.00 in
Snow Depth Not available.
7:16 AM 4:26 PM
Waxing Crescent, 32% visible
METAR KMRJ 051335Z AUTO 20003KT M1/4SM FG OVC003 01/01 A2992 RMK AO2
Pressure 29.92 in
Visibility 0.2 miles
Clouds Overcast 300 ft
Windchill 31 °F
Dew Point 34 °F
Humidity 100%
Rainfall 0.00 in
Snow Depth Not available.
7:16 AM 4:26 PM
Waxing Crescent, 32% visible
METAR KMRJ 051335Z AUTO 20003KT M1/4SM FG OVC003 01/01 A2992 RMK AO2

10-Day Weather Forecast

Almanac

Astronomy

Dec. 05, 2016 Rise Set
Actual Time
Civil Twilight
Nautical Twilight
Astronomical Twilight
Moon
Length of Visible Light
Length of Day
Tomorrow will be .
, % of the Moon is Illuminated

Today's Extremes

State Highs State Lows

Community

WunderPhotos

Upload Photos

1,955,780 photos uploaded!

WunderBlog® & News

Nearby

Air Quality

  Air Quality AQ Index Pollutant
Not available.

Snow Depth

Station Depth Elevation

Earthquake Activity

City Distance Mag. Time & Date
Minimum magnitude displayed is 2.5.

Coastal Water Temperatures

Place Temperature

Stations

Nearby Weather Stations

Station Location Temp. Windchill Dew Point Humidity Wind Precip. Elev Updated Type
                   

Watches & Warnings

There are currently no watches in effect.